sensor_id;sensor_type;location;lat;lon;timestamp;temperature;humidity
25410;DHT22;13339;50.840;4.346;2024-01-15T00:01:27;5.50;99.90
25410;DHT22;13339;50.840;4.346;2024-01-15T00:03:52;5.40;99.90
25410;DHT22;13339;50.840;4.346;2024-01-15T00:06:18;5.40;99.90
25410;DHT22;13339;50.840;4.346;2024-01-15T00:08:44;5.50;99.90
25410;DHT22;13339;50.840;4.346;2024-01-15T00:11:09;5.50;99.90
25410;DHT22;13339;50.840;4.346;2024-01-15T00:13:35;5.50;99.90
25410;DHT22;13339;50.840;4.346;2024-01-15T00:16:00;5.50;99.90
25410;DHT22;13339;50.840;4.346;2024-01-15T00:18:26;5.50;99.90
25410;DHT22;13339;50.840;4.346;2024-01-15T00:20:51;5.50;99.90
25410;DHT22;13339;50.840;4.346;2024-01-15T00:23:17;5.40;99.90
25410;DHT22;13339;50.840;4.346;2024-01-15T00:25:42;5.50;99.90
25410;DHT22;13339;50.840;4.346;2024-01-15T00:28:08;5.60;99.90
25410;DHT22;13339;50.840;4.346;2024-01-15T00:30:34;5.50;99.90
25410;DHT22;13339;50.840;4.346;2024-01-15T00:32:59;5.60;99.90
25410;DHT22;13339;50.840;4.346;2024-01-15T00:35:25;5.60;99.90
25410;DHT22;13339;50.840;4.346;2024-01-15T00:37:50;5.50;99.90
25410;DHT22;13339;50.840;4.346;2024-01-15T00:40:16;5.50;99.90
25410;DHT22;13339;50.840;4.346;2024-01-15T00:42:41;5.50;99.90
25410;DHT22;13339;50.840;4.346;2024-01-15T00:45:07;5.60;99.90
25410;DHT22;13339;50.840;4.346;2024-01-15T00:47:34;5.60;99.90
25410;DHT22;13339;50.840;4.346;2024-01-15T00:50:00;5.60;99.90
25410;DHT22;13339;50.840;4.346;2024-01-15T00:52:26;5.70;99.90
25410;DHT22;13339;50.840;4.346;2024-01-15T00:54:51;5.80;99.90
25410;DHT22;13339;50.840;4.346;2024-01-15T00:57:17;5.80;99.90
25410;DHT22;13339;50.840;4.346;2024-01-15T00:59:44;5.70;99.90
25410;DHT22;13339;50.840;4.346;2024-01-15T01:02:10;5.80;99.90
25410;DHT22;13339;50.840;4.346;2024-01-15T01:04:35;5.90;99.90
25410;DHT22;13339;50.840;4.346;2024-01-15T01:07:01;6.00;99.90
25410;DHT22;13339;50.840;4.346;2024-01-15T01:09:27;6.10;99.90
25410;DHT22;13339;50.840;4.346;2024-01-15T01:11:56;6.10;99.90
25410;DHT22;13339;50.840;4.346;2024-01-15T01:14:21;6.10;99.90
25410;DHT22;13339;50.840;4.346;2024-01-15T01:16:47;6.20;99.90
25410;DHT22;13339;50.840;4.346;2024-01-15T01:19:12;6.20;99.90
25410;DHT22;13339;50.840;4.346;2024-01-15T01:21:38;6.30;99.90
25410;DHT22;13339;50.840;4.346;2024-01-15T01:24:04;6.30;99.90
25410;DHT22;13339;50.840;4.346;2024-01-15T01:26:30;6.20;99.90
25410;DHT22;13339;50.840;4.346;2024-01-15T01:28:55;6.00;99.90
25410;DHT22;13339;50.840;4.346;2024-01-15T01:31:21;6.00;99.90
25410;DHT22;13339;50.840;4.346;2024-01-15T01:33:47;6.10;99.90
25410;DHT22;13339;50.840;4.346;2024-01-15T01:36:12;6.10;99.90
25410;DHT22;13339;50.840;4.346;2024-01-15T01:38:39;6.00;99.90
25410;DHT22;13339;50.840;4.346;2024-01-15T01:41:05;6.00;99.90
25410;DHT22;13339;50.840;4.346;2024-01-15T01:43:30;6.10;99.90
25410;DHT22;13339;50.840;4.346;2024-01-15T01:45:57;6.00;99.90
25410;DHT22;13339;50.840;4.346;2024-01-15T01:48:24;6.00;99.90
25410;DHT22;13339;50.840;4.346;2024-01-15T01:50:58;6.10;99.90
25410;DHT22;13339;50.840;4.346;2024-01-15T01:53:26;6.00;99.90
25410;DHT22;13339;50.840;4.346;2024-01-15T01:55:52;6.10;99.90
25410;DHT22;13339;50.840;4.346;2024-01-15T01:58:19;6.20;99.90
25410;DHT22;13339;50.840;4.346;2024-01-15T02:00:46;6.20;99.90
25410;DHT22;13339;50.840;4.346;2024-01-15T02:03:12;6.20;99.90
25410;DHT22;13339;50.840;4.346;2024-01-15T02:05:39;6.20;99.90
25410;DHT22;13339;50.840;4.346;2024-01-15T02:08:05;6.20;99.90
25410;DHT22;13339;50.840;4.346;2024-01-15T02:10:31;6.20;99.90
25410;DHT22;13339;50.840;4.346;2024-01-15T02:12:57;6.30;99.90
25410;DHT22;13339;50.840;4.346;2024-01-15T02:15:23;6.30;99.90
25410;DHT22;13339;50.840;4.346;2024-01-15T02:18:05;6.40;99.90
25410;DHT22;13339;50.840;4.346;2024-01-15T02:20:33;6.30;99.90
25410;DHT22;13339;50.840;4.346;2024-01-15T02:23:11;6.20;99.90
25410;DHT22;13339;50.840;4.346;2024-01-15T02:25:41;6.30;99.90
25410;DHT22;13339;50.840;4.346;2024-01-15T02:28:09;6.20;99.90
25410;DHT22;13339;50.840;4.346;2024-01-15T02:30:39;6.20;99.90
25410;DHT22;13339;50.840;4.346;2024-01-15T02:33:06;6.40;99.90
25410;DHT22;13339;50.840;4.346;2024-01-15T02:35:32;6.50;99.90
25410;DHT22;13339;50.840;4.346;2024-01-15T02:37:58;6.50;99.90
25410;DHT22;13339;50.840;4.346;2024-01-15T02:40:24;6.50;99.90
25410;DHT22;13339;50.840;4.346;2024-01-15T02:42:49;6.30;99.90
25410;DHT22;13339;50.840;4.346;2024-01-15T02:45:15;6.20;99.90
25410;DHT22;13339;50.840;4.346;2024-01-15T02:47:41;6.20;99.90
25410;DHT22;13339;50.840;4.346;2024-01-15T02:50:07;6.20;99.90
25410;DHT22;13339;50.840;4.346;2024-01-15T02:52:32;6.20;99.90
25410;DHT22;13339;50.840;4.346;2024-01-15T02:54:58;6.10;99.90
25410;DHT22;13339;50.840;4.346;2024-01-15T02:57:23;6.10;99.90
25410;DHT22;13339;50.840;4.346;2024-01-15T02:59:49;6.20;99.90
25410;DHT22;13339;50.840;4.346;2024-01-15T03:02:14;6.10;99.90
25410;DHT22;13339;50.840;4.346;2024-01-15T03:04:44;6.00;99.90
25410;DHT22;13339;50.840;4.346;2024-01-15T03:07:10;6.00;99.90
25410;DHT22;13339;50.840;4.346;2024-01-15T03:09:35;6.00;99.90
25410;DHT22;13339;50.840;4.346;2024-01-15T03:12:01;5.90;99.90
25410;DHT22;13339;50.840;4.346;2024-01-15T03:14:26;5.90;99.90
25410;DHT22;13339;50.840;4.346;2024-01-15T03:16:52;5.90;99.90
25410;DHT22;13339;50.840;4.346;2024-01-15T03:19:18;5.90;99.90
25410;DHT22;13339;50.840;4.346;2024-01-15T03:21:44;5.90;99.90
25410;DHT22;13339;50.840;4.346;2024-01-15T03:24:09;6.10;99.90
25410;DHT22;13339;50.840;4.346;2024-01-15T03:26:35;6.00;99.90
25410;DHT22;13339;50.840;4.346;2024-01-15T03:29:01;6.00;99.90
25410;DHT22;13339;50.840;4.346;2024-01-15T03:31:26;5.90;99.90
25410;DHT22;13339;50.840;4.346;2024-01-15T03:33:52;5.90;99.90
25410;DHT22;13339;50.840;4.346;2024-01-15T03:36:18;5.90;99.90
25410;DHT22;13339;50.840;4.346;2024-01-15T03:38:43;6.00;99.90
25410;DHT22;13339;50.840;4.346;2024-01-15T03:41:09;5.90;99.90
25410;DHT22;13339;50.840;4.346;2024-01-15T03:43:34;5.90;99.90
25410;DHT22;13339;50.840;4.346;2024-01-15T03:46:00;5.80;99.90
25410;DHT22;13339;50.840;4.346;2024-01-15T03:48:27;5.70;99.90
25410;DHT22;13339;50.840;4.346;2024-01-15T03:50:53;5.40;99.90
25410;DHT22;13339;50.840;4.346;2024-01-15T03:53:18;5.50;99.90
25410;DHT22;13339;50.840;4.346;2024-01-15T03:55:44;5.70;99.90
25410;DHT22;13339;50.840;4.346;2024-01-15T03:58:10;5.80;99.90
25410;DHT22;13339;50.840;4.346;2024-01-15T04:00:35;5.80;99.90
25410;DHT22;13339;50.840;4.346;2024-01-15T04:03:01;5.80;99.90
25410;DHT22;13339;50.840;4.346;2024-01-15T04:05:26;5.80;99.90
25410;DHT22;13339;50.840;4.346;2024-01-15T04:07:52;5.80;99.90
25410;DHT22;13339;50.840;4.346;2024-01-15T04:10:18;5.80;99.90
25410;DHT22;13339;50.840;4.346;2024-01-15T04:12:43;5.80;99.90
25410;DHT22;13339;50.840;4.346;2024-01-15T04:15:12;5.90;99.90
25410;DHT22;13339;50.840;4.346;2024-01-15T04:17:38;5.90;99.90
25410;DHT22;13339;50.840;4.346;2024-01-15T04:20:04;5.80;99.90
25410;DHT22;13339;50.840;4.346;2024-01-15T04:22:29;5.80;99.90
25410;DHT22;13339;50.840;4.346;2024-01-15T04:24:55;6.00;99.90
25410;DHT22;13339;50.840;4.346;2024-01-15T04:27:21;5.90;99.90
25410;DHT22;13339;50.840;4.346;2024-01-15T04:29:46;6.00;99.90
25410;DHT22;13339;50.840;4.346;2024-01-15T04:32:12;6.00;99.90
25410;DHT22;13339;50.840;4.346;2024-01-15T04:34:38;6.10;99.90
25410;DHT22;13339;50.840;4.346;2024-01-15T04:37:03;6.10;99.90
25410;DHT22;13339;50.840;4.346;2024-01-15T04:39:29;6.10;99.90
25410;DHT22;13339;50.840;4.346;2024-01-15T04:41:55;6.10;99.90
25410;DHT22;13339;50.840;4.346;2024-01-15T04:44:20;6.00;99.90
25410;DHT22;13339;50.840;4.346;2024-01-15T04:46:46;6.00;99.90
25410;DHT22;13339;50.840;4.346;2024-01-15T04:49:12;5.90;99.90
25410;DHT22;13339;50.840;4.346;2024-01-15T04:51:37;6.00;99.90
25410;DHT22;13339;50.840;4.346;2024-01-15T04:54:03;6.00;99.90
25410;DHT22;13339;50.840;4.346;2024-01-15T04:56:29;6.00;99.90
25410;DHT22;13339;50.840;4.346;2024-01-15T04:58:54;5.90;99.90
25410;DHT22;13339;50.840;4.346;2024-01-15T05:01:20;5.80;99.90
25410;DHT22;13339;50.840;4.346;2024-01-15T05:03:46;5.90;99.90
25410;DHT22;13339;50.840;4.346;2024-01-15T05:06:11;6.00;99.90
25410;DHT22;13339;50.840;4.346;2024-01-15T05:08:37;5.90;99.90
25410;DHT22;13339;50.840;4.346;2024-01-15T05:11:03;5.90;99.90
25410;DHT22;13339;50.840;4.346;2024-01-15T05:13:28;6.00;99.90
25410;DHT22;13339;50.840;4.346;2024-01-15T05:15:54;5.90;99.90
25410;DHT22;13339;50.840;4.346;2024-01-15T05:18:20;5.90;99.90
25410;DHT22;13339;50.840;4.346;2024-01-15T05:20:45;5.90;99.90
25410;DHT22;13339;50.840;4.346;2024-01-15T05:23:11;5.90;99.90
25410;DHT22;13339;50.840;4.346;2024-01-15T05:25:37;5.90;99.90
25410;DHT22;13339;50.840;4.346;2024-01-15T05:28:02;5.80;99.90
25410;DHT22;13339;50.840;4.346;2024-01-15T05:30:28;5.80;99.90
25410;DHT22;13339;50.840;4.346;2024-01-15T05:32:53;5.80;99.90
25410;DHT22;13339;50.840;4.346;2024-01-15T05:35:19;5.70;99.90
25410;DHT22;13339;50.840;4.346;2024-01-15T05:37:45;5.60;99.90
25410;DHT22;13339;50.840;4.346;2024-01-15T05:40:12;5.60;99.90
25410;DHT22;13339;50.840;4.346;2024-01-15T05:42:41;5.70;99.90
25410;DHT22;13339;50.840;4.346;2024-01-15T05:45:07;5.60;99.90
25410;DHT22;13339;50.840;4.346;2024-01-15T05:47:33;5.50;99.90
25410;DHT22;13339;50.840;4.346;2024-01-15T05:50:00;5.40;99.90
25410;DHT22;13339;50.840;4.346;2024-01-15T05:52:25;5.40;99.90
25410;DHT22;13339;50.840;4.346;2024-01-15T05:54:51;5.40;99.90
25410;DHT22;13339;50.840;4.346;2024-01-15T05:57:17;5.50;99.90
25410;DHT22;13339;50.840;4.346;2024-01-15T05:59:44;5.50;99.90
25410;DHT22;13339;50.840;4.346;2024-01-15T06:02:09;5.60;99.90
25410;DHT22;13339;50.840;4.346;2024-01-15T06:04:35;5.60;99.90
25410;DHT22;13339;50.840;4.346;2024-01-15T06:07:01;5.50;99.90
25410;DHT22;13339;50.840;4.346;2024-01-15T06:09:26;5.50;99.90
25410;DHT22;13339;50.840;4.346;2024-01-15T06:11:53;5.60;99.90
25410;DHT22;13339;50.840;4.346;2024-01-15T06:14:18;5.60;99.90
25410;DHT22;13339;50.840;4.346;2024-01-15T06:16:44;5.70;99.90
25410;DHT22;13339;50.840;4.346;2024-01-15T06:19:09;5.60;99.90
25410;DHT22;13339;50.840;4.346;2024-01-15T06:21:35;5.70;99.90
25410;DHT22;13339;50.840;4.346;2024-01-15T06:24:01;5.60;99.90
25410;DHT22;13339;50.840;4.346;2024-01-15T06:26:26;5.60;99.90
25410;DHT22;13339;50.840;4.346;2024-01-15T06:28:52;5.50;99.90
25410;DHT22;13339;50.840;4.346;2024-01-15T06:31:17;5.30;99.90
25410;DHT22;13339;50.840;4.346;2024-01-15T06:33:43;5.30;99.90
25410;DHT22;13339;50.840;4.346;2024-01-15T06:36:10;5.30;99.90
25410;DHT22;13339;50.840;4.346;2024-01-15T06:38:36;5.30;99.90
25410;DHT22;13339;50.840;4.346;2024-01-15T06:41:01;5.30;99.90
25410;DHT22;13339;50.840;4.346;2024-01-15T06:43:27;5.20;99.90
25410;DHT22;13339;50.840;4.346;2024-01-15T06:45:52;5.10;99.90
25410;DHT22;13339;50.840;4.346;2024-01-15T06:48:18;5.20;99.90
25410;DHT22;13339;50.840;4.346;2024-01-15T06:50:44;5.10;99.90
25410;DHT22;13339;50.840;4.346;2024-01-15T06:53:10;5.10;99.90
25410;DHT22;13339;50.840;4.346;2024-01-15T06:55:35;5.10;99.90
25410;DHT22;13339;50.840;4.346;2024-01-15T06:58:01;5.10;99.90
25410;DHT22;13339;50.840;4.346;2024-01-15T07:00:27;5.20;99.90
25410;DHT22;13339;50.840;4.346;2024-01-15T07:02:53;5.00;99.90
25410;DHT22;13339;50.840;4.346;2024-01-15T07:05:20;5.10;99.90
25410;DHT22;13339;50.840;4.346;2024-01-15T07:07:46;5.00;99.90
25410;DHT22;13339;50.840;4.346;2024-01-15T07:10:13;5.20;99.90
25410;DHT22;13339;50.840;4.346;2024-01-15T07:12:38;5.20;99.90
25410;DHT22;13339;50.840;4.346;2024-01-15T07:15:04;5.30;99.90
25410;DHT22;13339;50.840;4.346;2024-01-15T07:17:32;5.40;99.90
25410;DHT22;13339;50.840;4.346;2024-01-15T07:19:58;5.30;99.90
25410;DHT22;13339;50.840;4.346;2024-01-15T07:22:23;5.40;99.90
25410;DHT22;13339;50.840;4.346;2024-01-15T07:24:49;5.50;99.90
25410;DHT22;13339;50.840;4.346;2024-01-15T07:27:15;5.50;99.90
25410;DHT22;13339;50.840;4.346;2024-01-15T07:29:40;5.50;99.90
25410;DHT22;13339;50.840;4.346;2024-01-15T07:32:06;5.50;99.90
25410;DHT22;13339;50.840;4.346;2024-01-15T07:34:33;5.40;99.90
25410;DHT22;13339;50.840;4.346;2024-01-15T07:36:58;5.40;99.90
25410;DHT22;13339;50.840;4.346;2024-01-15T07:39:24;5.40;99.90
25410;DHT22;13339;50.840;4.346;2024-01-15T07:41:51;5.40;99.90
25410;DHT22;13339;50.840;4.346;2024-01-15T07:44:17;5.40;99.90
25410;DHT22;13339;50.840;4.346;2024-01-15T07:46:46;5.40;99.90
25410;DHT22;13339;50.840;4.346;2024-01-15T07:49:12;5.40;99.90
25410;DHT22;13339;50.840;4.346;2024-01-15T07:51:38;5.50;99.90
25410;DHT22;13339;50.840;4.346;2024-01-15T07:54:05;5.40;99.90
25410;DHT22;13339;50.840;4.346;2024-01-15T07:56:31;5.40;99.90
25410;DHT22;13339;50.840;4.346;2024-01-15T07:58:57;5.40;99.90
25410;DHT22;13339;50.840;4.346;2024-01-15T08:01:22;5.40;99.90
25410;DHT22;13339;50.840;4.346;2024-01-15T08:03:48;5.40;99.90
25410;DHT22;13339;50.840;4.346;2024-01-15T08:06:14;5.50;99.90
25410;DHT22;13339;50.840;4.346;2024-01-15T08:08:39;5.50;99.90
25410;DHT22;13339;50.840;4.346;2024-01-15T08:11:05;5.60;99.90
25410;DHT22;13339;50.840;4.346;2024-01-15T08:13:31;5.60;99.90
25410;DHT22;13339;50.840;4.346;2024-01-15T08:15:56;5.70;99.90
25410;DHT22;13339;50.840;4.346;2024-01-15T08:18:22;5.50;99.90
25410;DHT22;13339;50.840;4.346;2024-01-15T08:20:47;5.80;99.90
25410;DHT22;13339;50.840;4.346;2024-01-15T08:23:13;5.90;99.90
25410;DHT22;13339;50.840;4.346;2024-01-15T08:25:39;6.00;99.90
25410;DHT22;13339;50.840;4.346;2024-01-15T08:28:05;6.10;99.90
25410;DHT22;13339;50.840;4.346;2024-01-15T08:30:30;6.10;99.90
25410;DHT22;13339;50.840;4.346;2024-01-15T08:32:56;6.10;99.90
25410;DHT22;13339;50.840;4.346;2024-01-15T08:35:22;6.20;99.90
25410;DHT22;13339;50.840;4.346;2024-01-15T08:37:52;6.30;99.90
25410;DHT22;13339;50.840;4.346;2024-01-15T08:40:18;6.30;99.90
25410;DHT22;13339;50.840;4.346;2024-01-15T08:42:44;6.30;99.90
25410;DHT22;13339;50.840;4.346;2024-01-15T08:45:11;6.30;99.90
25410;DHT22;13339;50.840;4.346;2024-01-15T08:47:37;6.40;99.90
25410;DHT22;13339;50.840;4.346;2024-01-15T08:50:03;6.40;99.90
25410;DHT22;13339;50.840;4.346;2024-01-15T08:52:29;6.40;99.90
25410;DHT22;13339;50.840;4.346;2024-01-15T08:54:57;6.40;99.90
25410;DHT22;13339;50.840;4.346;2024-01-15T08:57:22;6.20;99.90
25410;DHT22;13339;50.840;4.346;2024-01-15T08:59:48;6.20;99.90
25410;DHT22;13339;50.840;4.346;2024-01-15T09:02:14;6.20;99.90
25410;DHT22;13339;50.840;4.346;2024-01-15T09:04:41;6.20;99.90
25410;DHT22;13339;50.840;4.346;2024-01-15T09:07:07;6.40;99.90
25410;DHT22;13339;50.840;4.346;2024-01-15T09:09:33;6.50;99.90
25410;DHT22;13339;50.840;4.346;2024-01-15T09:12:00;6.50;99.90
25410;DHT22;13339;50.840;4.346;2024-01-15T09:14:25;6.50;99.90
25410;DHT22;13339;50.840;4.346;2024-01-15T09:16:52;6.40;99.90
25410;DHT22;13339;50.840;4.346;2024-01-15T09:19:18;6.40;99.90
25410;DHT22;13339;50.840;4.346;2024-01-15T09:21:43;6.40;99.90
25410;DHT22;13339;50.840;4.346;2024-01-15T09:24:09;6.30;99.90
25410;DHT22;13339;50.840;4.346;2024-01-15T09:26:35;6.20;99.90
25410;DHT22;13339;50.840;4.346;2024-01-15T09:29:00;6.30;99.90
25410;DHT22;13339;50.840;4.346;2024-01-15T09:31:26;6.40;99.90
25410;DHT22;13339;50.840;4.346;2024-01-15T09:33:52;6.50;99.90
25410;DHT22;13339;50.840;4.346;2024-01-15T09:36:21;6.60;99.90
25410;DHT22;13339;50.840;4.346;2024-01-15T09:38:48;6.60;99.90
25410;DHT22;13339;50.840;4.346;2024-01-15T09:41:14;6.70;99.90
25410;DHT22;13339;50.840;4.346;2024-01-15T09:43:40;6.70;99.90
25410;DHT22;13339;50.840;4.346;2024-01-15T09:46:06;6.60;99.90
25410;DHT22;13339;50.840;4.346;2024-01-15T09:48:32;6.50;99.90
25410;DHT22;13339;50.840;4.346;2024-01-15T09:51:01;6.60;99.90
25410;DHT22;13339;50.840;4.346;2024-01-15T09:53:27;6.60;99.90
25410;DHT22;13339;50.840;4.346;2024-01-15T09:55:53;6.70;99.90
25410;DHT22;13339;50.840;4.346;2024-01-15T09:58:19;6.70;99.90
25410;DHT22;13339;50.840;4.346;2024-01-15T10:00:47;6.80;99.90
25410;DHT22;13339;50.840;4.346;2024-01-15T10:03:15;6.80;99.90
25410;DHT22;13339;50.840;4.346;2024-01-15T10:05:41;6.70;99.90
25410;DHT22;13339;50.840;4.346;2024-01-15T10:08:07;6.70;99.90
25410;DHT22;13339;50.840;4.346;2024-01-15T10:10:35;6.70;99.90
25410;DHT22;13339;50.840;4.346;2024-01-15T10:13:03;6.70;99.90
25410;DHT22;13339;50.840;4.346;2024-01-15T10:15:29;6.60;99.90
25410;DHT22;13339;50.840;4.346;2024-01-15T10:17:55;6.70;99.90
25410;DHT22;13339;50.840;4.346;2024-01-15T10:20:21;6.70;99.90
25410;DHT22;13339;50.840;4.346;2024-01-15T10:22:50;6.80;99.90
25410;DHT22;13339;50.840;4.346;2024-01-15T10:25:16;6.80;99.90
25410;DHT22;13339;50.840;4.346;2024-01-15T10:28:02;6.80;99.90
25410;DHT22;13339;50.840;4.346;2024-01-15T10:30:28;6.90;99.90
25410;DHT22;13339;50.840;4.346;2024-01-15T10:33:01;6.70;99.90
25410;DHT22;13339;50.840;4.346;2024-01-15T10:35:30;6.70;99.90
25410;DHT22;13339;50.840;4.346;2024-01-15T10:37:56;6.80;99.90
25410;DHT22;13339;50.840;4.346;2024-01-15T10:40:22;6.80;99.90
25410;DHT22;13339;50.840;4.346;2024-01-15T10:42:47;6.70;99.90
25410;DHT22;13339;50.840;4.346;2024-01-15T10:45:14;6.80;99.90
25410;DHT22;13339;50.840;4.346;2024-01-15T10:47:40;6.60;99.90
25410;DHT22;13339;50.840;4.346;2024-01-15T10:50:07;6.50;99.90
25410;DHT22;13339;50.840;4.346;2024-01-15T10:52:36;6.30;99.90
25410;DHT22;13339;50.840;4.346;2024-01-15T10:55:08;6.30;99.90
25410;DHT22;13339;50.840;4.346;2024-01-15T10:57:37;6.50;99.90
25410;DHT22;13339;50.840;4.346;2024-01-15T11:00:05;6.40;99.90
25410;DHT22;13339;50.840;4.346;2024-01-15T11:02:36;6.60;99.90
25410;DHT22;13339;50.840;4.346;2024-01-15T11:05:02;6.60;99.90
25410;DHT22;13339;50.840;4.346;2024-01-15T11:07:30;6.60;99.90
25410;DHT22;13339;50.840;4.346;2024-01-15T11:09:56;6.70;99.90
25410;DHT22;13339;50.840;4.346;2024-01-15T11:12:24;6.90;99.90
25410;DHT22;13339;50.840;4.346;2024-01-15T11:14:50;6.90;99.90
25410;DHT22;13339;50.840;4.346;2024-01-15T11:17:17;7.10;99.90
25410;DHT22;13339;50.840;4.346;2024-01-15T11:19:44;7.00;99.90
25410;DHT22;13339;50.840;4.346;2024-01-15T11:24:54;7.00;99.90
25410;DHT22;13339;50.840;4.346;2024-01-15T11:27:45;7.00;99.90
25410;DHT22;13339;50.840;4.346;2024-01-15T11:30:13;7.00;99.90
25410;DHT22;13339;50.840;4.346;2024-01-15T11:32:39;7.00;99.90
25410;DHT22;13339;50.840;4.346;2024-01-15T11:35:09;6.90;99.90
25410;DHT22;13339;50.840;4.346;2024-01-15T11:40:18;6.70;99.90
25410;DHT22;13339;50.840;4.346;2024-01-15T11:42:45;6.70;99.90
25410;DHT22;13339;50.840;4.346;2024-01-15T11:45:11;6.70;99.90
25410;DHT22;13339;50.840;4.346;2024-01-15T11:50:31;6.90;99.90
25410;DHT22;13339;50.840;4.346;2024-01-15T11:53:01;7.00;99.90
25410;DHT22;13339;50.840;4.346;2024-01-15T11:55:30;7.10;99.90
25410;DHT22;13339;50.840;4.346;2024-01-15T11:58:01;7.20;99.90
25410;DHT22;13339;50.840;4.346;2024-01-15T12:00:26;7.20;99.90
25410;DHT22;13339;50.840;4.346;2024-01-15T12:02:52;7.00;99.90
25410;DHT22;13339;50.840;4.346;2024-01-15T12:05:19;7.00;99.90
25410;DHT22;13339;50.840;4.346;2024-01-15T12:07:46;6.90;99.90
25410;DHT22;13339;50.840;4.346;2024-01-15T12:10:19;7.10;99.90
25410;DHT22;13339;50.840;4.346;2024-01-15T12:15:15;7.00;99.90
25410;DHT22;13339;50.840;4.346;2024-01-15T12:17:41;7.20;99.90
25410;DHT22;13339;50.840;4.346;2024-01-15T12:20:06;7.30;99.90
25410;DHT22;13339;50.840;4.346;2024-01-15T12:22:32;7.30;99.90
25410;DHT22;13339;50.840;4.346;2024-01-15T12:24:58;7.20;99.90
25410;DHT22;13339;50.840;4.346;2024-01-15T12:27:24;7.30;99.90
25410;DHT22;13339;50.840;4.346;2024-01-15T12:29:50;7.30;99.90
25410;DHT22;13339;50.840;4.346;2024-01-15T12:32:19;7.30;99.90
25410;DHT22;13339;50.840;4.346;2024-01-15T12:34:44;7.40;99.90
25410;DHT22;13339;50.840;4.346;2024-01-15T12:37:11;7.50;99.90
25410;DHT22;13339;50.840;4.346;2024-01-15T12:39:37;7.30;99.90
25410;DHT22;13339;50.840;4.346;2024-01-15T12:42:03;7.30;99.90
25410;DHT22;13339;50.840;4.346;2024-01-15T12:44:29;7.30;99.90
25410;DHT22;13339;50.840;4.346;2024-01-15T12:46:55;7.40;99.90
25410;DHT22;13339;50.840;4.346;2024-01-15T12:49:24;7.30;99.90
25410;DHT22;13339;50.840;4.346;2024-01-15T12:52:12;7.40;99.90
25410;DHT22;13339;50.840;4.346;2024-01-15T12:54:38;7.40;99.90
25410;DHT22;13339;50.840;4.346;2024-01-15T12:57:04;7.40;99.90
25410;DHT22;13339;50.840;4.346;2024-01-15T12:59:29;7.60;99.90
25410;DHT22;13339;50.840;4.346;2024-01-15T13:01:55;7.50;99.90
25410;DHT22;13339;50.840;4.346;2024-01-15T13:04:22;7.50;99.90
25410;DHT22;13339;50.840;4.346;2024-01-15T13:06:49;7.50;99.90
25410;DHT22;13339;50.840;4.346;2024-01-15T13:09:15;7.30;99.90
25410;DHT22;13339;50.840;4.346;2024-01-15T13:11:40;7.20;99.90
25410;DHT22;13339;50.840;4.346;2024-01-15T13:14:06;7.20;99.90
25410;DHT22;13339;50.840;4.346;2024-01-15T13:16:32;7.10;99.90
25410;DHT22;13339;50.840;4.346;2024-01-15T13:18:57;6.90;99.90
25410;DHT22;13339;50.840;4.346;2024-01-15T13:21:24;7.00;99.90
25410;DHT22;13339;50.840;4.346;2024-01-15T13:23:50;7.00;99.90
25410;DHT22;13339;50.840;4.346;2024-01-15T13:26:16;7.00;99.90
25410;DHT22;13339;50.840;4.346;2024-01-15T13:28:43;7.00;99.90
25410;DHT22;13339;50.840;4.346;2024-01-15T13:31:09;7.20;99.90
25410;DHT22;13339;50.840;4.346;2024-01-15T13:33:35;7.20;99.90
25410;DHT22;13339;50.840;4.346;2024-01-15T13:36:00;7.30;99.90
25410;DHT22;13339;50.840;4.346;2024-01-15T13:38:26;7.30;99.90
25410;DHT22;13339;50.840;4.346;2024-01-15T13:40:53;7.40;99.90
25410;DHT22;13339;50.840;4.346;2024-01-15T13:43:20;7.40;99.90
25410;DHT22;13339;50.840;4.346;2024-01-15T13:45:46;7.30;99.90
25410;DHT22;13339;50.840;4.346;2024-01-15T13:48:12;7.40;99.90
25410;DHT22;13339;50.840;4.346;2024-01-15T13:50:37;7.30;99.90
25410;DHT22;13339;50.840;4.346;2024-01-15T13:53:03;7.40;99.90
25410;DHT22;13339;50.840;4.346;2024-01-15T13:55:29;7.40;99.90
25410;DHT22;13339;50.840;4.346;2024-01-15T13:57:55;7.50;99.90
25410;DHT22;13339;50.840;4.346;2024-01-15T14:00:21;7.50;99.90
25410;DHT22;13339;50.840;4.346;2024-01-15T14:02:47;7.30;99.90
25410;DHT22;13339;50.840;4.346;2024-01-15T14:05:13;7.00;99.90
25410;DHT22;13339;50.840;4.346;2024-01-15T14:07:39;6.80;99.90
25410;DHT22;13339;50.840;4.346;2024-01-15T14:10:05;6.70;99.90
25410;DHT22;13339;50.840;4.346;2024-01-15T14:12:33;6.70;99.90
25410;DHT22;13339;50.840;4.346;2024-01-15T14:14:59;6.60;99.90
25410;DHT22;13339;50.840;4.346;2024-01-15T14:17:25;6.70;99.90
25410;DHT22;13339;50.840;4.346;2024-01-15T14:19:51;6.70;99.90
25410;DHT22;13339;50.840;4.346;2024-01-15T14:22:16;6.70;99.90
25410;DHT22;13339;50.840;4.346;2024-01-15T14:24:42;6.90;99.90
25410;DHT22;13339;50.840;4.346;2024-01-15T14:27:07;6.80;99.90
25410;DHT22;13339;50.840;4.346;2024-01-15T14:29:34;6.80;99.90
25410;DHT22;13339;50.840;4.346;2024-01-15T14:32:01;6.90;99.90
25410;DHT22;13339;50.840;4.346;2024-01-15T14:34:27;6.80;99.90
25410;DHT22;13339;50.840;4.346;2024-01-15T14:36:52;6.70;99.90
25410;DHT22;13339;50.840;4.346;2024-01-15T14:39:19;6.60;99.90
25410;DHT22;13339;50.840;4.346;2024-01-15T14:41:45;6.60;99.90
25410;DHT22;13339;50.840;4.346;2024-01-15T14:44:12;6.30;99.90
25410;DHT22;13339;50.840;4.346;2024-01-15T14:46:38;6.10;99.90
25410;DHT22;13339;50.840;4.346;2024-01-15T14:49:03;6.00;99.90
25410;DHT22;13339;50.840;4.346;2024-01-15T14:51:29;6.00;99.90
25410;DHT22;13339;50.840;4.346;2024-01-15T14:53:55;6.00;99.90
25410;DHT22;13339;50.840;4.346;2024-01-15T14:56:21;6.00;99.90
25410;DHT22;13339;50.840;4.346;2024-01-15T14:58:46;5.90;99.90
25410;DHT22;13339;50.840;4.346;2024-01-15T15:01:12;6.00;99.90
25410;DHT22;13339;50.840;4.346;2024-01-15T15:03:38;5.90;99.90
25410;DHT22;13339;50.840;4.346;2024-01-15T15:06:04;5.90;99.90
25410;DHT22;13339;50.840;4.346;2024-01-15T15:08:30;6.00;99.90
25410;DHT22;13339;50.840;4.346;2024-01-15T15:10:55;6.00;99.90
25410;DHT22;13339;50.840;4.346;2024-01-15T15:13:22;6.00;99.90
25410;DHT22;13339;50.840;4.346;2024-01-15T15:15:48;6.00;99.90
25410;DHT22;13339;50.840;4.346;2024-01-15T15:18:14;6.00;99.90
25410;DHT22;13339;50.840;4.346;2024-01-15T15:20:39;5.90;99.90
25410;DHT22;13339;50.840;4.346;2024-01-15T15:23:05;5.80;99.90
25410;DHT22;13339;50.840;4.346;2024-01-15T15:25:34;5.80;99.90
25410;DHT22;13339;50.840;4.346;2024-01-15T15:28:01;5.80;99.90
25410;DHT22;13339;50.840;4.346;2024-01-15T15:30:27;5.80;99.90
25410;DHT22;13339;50.840;4.346;2024-01-15T15:32:53;5.90;99.90
25410;DHT22;13339;50.840;4.346;2024-01-15T15:35:21;6.00;99.90
25410;DHT22;13339;50.840;4.346;2024-01-15T15:37:47;5.90;99.90
25410;DHT22;13339;50.840;4.346;2024-01-15T15:40:12;6.00;99.90
25410;DHT22;13339;50.840;4.346;2024-01-15T15:42:38;6.00;99.90
25410;DHT22;13339;50.840;4.346;2024-01-15T15:45:04;6.00;99.90
25410;DHT22;13339;50.840;4.346;2024-01-15T15:47:31;6.00;99.90
25410;DHT22;13339;50.840;4.346;2024-01-15T15:49:56;5.90;99.90